Time;durP1;ratioP1;P1;durP2;ratioP2;P2;SDS_P1;SDS_P2;PMS_P1;PMS_P2;Temp;Humidity;BMP_temperature;BMP_pressure;BME280_temperature;BME280_humidity;BME280_pressure;Samples;Min_cycle;Max_cycle;Signal;HPM_P1;HPM_P2
2022/01/19 00:00:13;;;;;;;32.23;9.87;;;;;;;1.49;100.00;102214.11;5158187;56;1139322;-73
2022/01/19 00:05:20;;;;;;;48.40;13.37;;;;;;;1.50;100.00;102206.28;5133322;57;1136898;-74
2022/01/19 00:10:32;;;;;;;42.33;10.60;;;;;;;1.53;100.00;102199.69;5133260;57;1139041;-75
2022/01/19 00:15:34;;;;;;;26.27;8.20;;;;;;;1.58;100.00;102200.94;5132930;57;1138969;-72
2022/01/19 00:20:39;;;;;;;31.40;9.23;;;;;;;1.62;100.00;102193.51;5133363;57;1137206;-76
2022/01/19 00:25:47;;;;;;;23.23;9.03;;;;;;;1.66;100.00;102182.16;5133244;57;1137256;-71
2022/01/19 00:30:53;;;;;;;29.27;7.67;;;;;;;1.70;100.00;102177.30;5204428;56;1136953;-74
2022/01/19 00:35:59;;;;;;;23.98;6.50;;;;;;;1.74;100.00;102168.55;5218960;56;1136901;-73
2022/01/19 00:41:05;;;;;;;28.13;8.17;;;;;;;1.74;100.00;102156.38;5219071;56;1136849;-72
2022/01/19 00:46:11;;;;;;;24.13;7.07;;;;;;;1.81;100.00;102149.77;5219012;56;1136925;-71
2022/01/19 00:51:16;;;;;;;29.13;6.97;;;;;;;1.84;100.00;102149.70;5219036;56;1136998;-73
2022/01/19 00:56:22;;;;;;;22.87;7.70;;;;;;;1.86;100.00;102135.75;5237924;55;1137696;-75
2022/01/19 01:01:28;;;;;;;16.60;5.70;;;;;;;1.90;100.00;102140.04;5242709;55;1136944;-72
2022/01/19 01:06:34;;;;;;;21.93;5.90;;;;;;;1.95;100.00;102148.66;5242821;55;1137292;-72
2022/01/19 01:12:42;;;;;;;16.17;4.87;;;;;;;2.01;100.00;102135.94;5242694;55;1137200;-72
2022/01/19 01:17:12;;;;;;;21.80;5.83;;;;;;;2.05;100.00;102131.97;5242312;56;1134904;-73
2022/01/19 01:21:59;;;;;;;20.70;5.63;;;;;;;2.07;100.00;102122.81;5242011;55;1139308;-72
2022/01/19 01:27:06;;;;;;;16.53;4.37;;;;;;;2.10;100.00;102111.88;5243075;55;1139480;-72
2022/01/19 01:32:11;;;;;;;14.58;5.50;;;;;;;2.13;100.00;102086.63;5242828;55;1139322;-74
2022/01/19 01:37:18;;;;;;;16.30;5.20;;;;;;;2.14;100.00;102066.99;5242772;55;1139356;-75
2022/01/19 01:42:25;;;;;;;22.07;4.80;;;;;;;2.16;100.00;102055.22;5242788;55;1139285;-72
2022/01/19 01:47:34;;;;;;;11.30;3.40;;;;;;;2.18;100.00;102046.48;5242519;55;1138941;-73
2022/01/19 01:58:03;;;;;;;16.15;6.45;;;;;;;2.20;100.00;102025.58;5219504;56;1139060;-72
2022/01/19 02:03:09;;;;;;;10.47;3.93;;;;;;;2.23;100.00;102027.69;5210680;56;1139036;-74
2022/01/19 02:08:21;;;;;;;12.50;4.97;;;;;;;2.23;100.00;102011.17;5176851;56;1139514;-70
2022/01/19 02:24:20;;;;;;;;;;;;;;;2.27;100.00;102026.75;5222797;56;1137225;-72
2022/01/19 02:30:21;;;;;;;12.90;4.70;;;;;;;2.30;100.00;102019.27;5222029;56;974206;-71
2022/01/19 02:40:19;;;;;;;12.93;5.37;;;;;;;2.35;100.00;101988.28;5218655;56;1139165;-75
2022/01/19 02:50:33;;;;;;;13.68;5.35;;;;;;;2.40;100.00;101964.70;5159571;56;1139046;-76
2022/01/19 02:55:40;;;;;;;19.47;7.23;;;;;;;2.43;100.00;101955.51;5130527;57;1136996;-72
2022/01/19 03:11:37;;;;;;;14.20;5.57;;;;;;;2.47;100.00;101935.80;5158435;57;1137485;-70
2022/01/19 03:16:43;;;;;;;8.57;4.50;;;;;;;2.45;100.00;101928.45;5162508;56;1137225;-74
2022/01/19 03:21:49;;;;;;;16.23;5.43;;;;;;;2.48;100.00;101933.61;5162602;57;1134908;-68
2022/01/19 03:26:54;;;;;;;12.57;5.97;;;;;;;2.47;100.00;101927.11;5157217;56;1137061;-72
2022/01/19 03:32:02;;;;;;;14.80;5.93;;;;;;;2.46;100.00;101918.41;5073267;57;1136923;-69
2022/01/19 03:37:08;;;;;;;20.03;7.77;;;;;;;2.45;100.00;101904.95;4990291;58;1137044;-72
2022/01/19 03:42:14;;;;;;;13.07;5.80;;;;;;;2.44;100.00;101895.39;5037167;58;1135122;-69
2022/01/19 03:47:20;;;;;;;13.30;4.97;;;;;;;2.44;100.00;101886.73;5069426;58;1135135;-75
2022/01/19 03:52:27;;;;;;;21.95;6.95;;;;;;;2.45;100.00;101879.28;5078290;57;1139095;-76
2022/01/19 03:57:33;;;;;;;14.20;5.40;;;;;;;2.46;100.00;101879.69;5239731;56;1139280;-74
2022/01/19 04:02:40;;;;;;;15.15;6.50;;;;;;;2.47;100.00;101873.58;5217001;56;1138994;-71
2022/01/19 04:07:45;;;;;;;10.17;4.17;;;;;;;2.48;100.00;101871.38;5217628;56;1139462;-74
2022/01/19 04:13:07;;;;;;;23.13;7.70;;;;;;;2.48;100.00;101859.63;5217660;56;1138863;-70
2022/01/19 04:18:01;;;;;;;15.17;4.90;;;;;;;2.48;100.00;101854.41;5215775;56;1139578;-74
2022/01/19 04:23:07;;;;;;;15.17;5.73;;;;;;;2.48;100.00;101850.49;5217720;56;1139072;-72
2022/01/19 04:28:14;;;;;;;9.83;5.73;;;;;;;2.47;100.00;101837.02;5217429;56;1139106;-75
2022/01/19 04:33:25;;;;;;;18.07;6.10;;;;;;;2.48;100.00;101830.47;5217372;56;1136943;-70
2022/01/19 04:54:07;;;;;;;13.37;5.37;;;;;;;2.53;100.00;101813.39;5217672;56;1139033;-71
2022/01/19 04:54:38;;;;;;;11.97;5.67;;;;;;;2.53;100.00;101804.70;5188801;56;1139003;-70
2022/01/19 05:04:54;;;;;;;17.10;7.03;;;;;;;2.55;100.00;101797.25;5122763;57;1139103;-73
2022/01/19 05:15:29;;;;;;;21.93;7.77;;;;;;;2.58;100.00;101802.41;5043824;57;1138972;-76
2022/01/19 05:20:37;;;;;;;15.07;7.80;;;;;;;2.59;100.00;101801.51;5046157;57;1139040;-71
2022/01/19 05:25:44;;;;;;;11.07;6.43;;;;;;;2.61;100.00;101792.30;4969868;58;1139341;-73
2022/01/19 05:30:53;;;;;;;15.70;6.50;;;;;;;2.61;100.00;101787.08;4979338;58;1139018;-70
2022/01/19 05:35:58;;;;;;;15.10;6.63;;;;;;;2.64;100.00;101777.87;5079128;57;1138971;-72
2022/01/19 05:41:18;;;;;;;20.47;8.03;;;;;;;2.63;100.00;101780.06;5076914;57;1136928;-71
2022/01/19 05:46:24;;;;;;;23.93;10.17;;;;;;;2.63;100.00;101772.23;5020959;58;1137262;-71
2022/01/19 05:51:30;;;;;;;21.03;8.17;;;;;;;2.58;100.00;101759.75;4996028;58;1139277;-74
2022/01/19 05:56:37;;;;;;;18.85;7.40;;;;;;;2.62;100.00;101770.06;4993550;57;1137000;-72
2022/01/19 06:01:45;;;;;;;24.73;7.60;;;;;;;2.63;100.00;101776.15;5027382;58;1137298;-74
2022/01/19 06:06:55;;;;;;;19.17;9.10;;;;;;;2.60;100.00;101769.24;5117435;57;1137101;-74
2022/01/19 06:12:13;;;;;;;16.20;6.60;;;;;;;2.61;100.00;101760.96;5124257;57;1136991;-70
2022/01/19 06:17:19;;;;;;;13.20;8.67;;;;;;;2.63;100.00;101752.64;5163215;56;1136313;-74
2022/01/19 06:22:25;;;;;;;18.85;9.23;;;;;;;2.62;100.00;101750.92;5133491;56;1137076;-70
2022/01/19 06:27:31;;;;;;;18.87;7.50;;;;;;;2.63;100.00;101736.53;5088053;57;1136939;-74
2022/01/19 06:32:37;;;;;;;14.80;7.70;;;;;;;2.63;100.00;101739.59;5157775;56;1136342;-71
2022/01/19 06:37:43;;;;;;;20.60;9.13;;;;;;;2.61;100.00;101741.38;5111923;57;1137089;-74
2022/01/19 06:42:59;;;;;;;23.30;8.83;;;;;;;2.61;100.00;101737.45;5045601;58;1223487;-72
2022/01/19 06:48:06;;;;;;;13.97;5.17;;;;;;;2.60;100.00;101735.30;5189457;56;1139037;-71
2022/01/19 06:53:12;;;;;;;21.37;9.27;;;;;;;2.56;100.00;101732.38;5202722;56;1139019;-73
2022/01/19 06:58:20;;;;;;;19.53;7.33;;;;;;;2.55;100.00;101722.82;5181340;56;1139036;-72
2022/01/19 07:03:33;;;;;;;18.90;8.48;;;;;;;2.52;100.00;101707.22;5214302;55;1138413;-72
2022/01/19 07:08:41;;;;;;;17.53;8.03;;;;;;;2.50;100.00;101698.56;5225736;55;1138429;-72
2022/01/19 07:13:47;;;;;;;11.80;6.57;;;;;;;2.46;100.00;101693.86;5201130;56;1138946;-71
2022/01/19 07:18:53;;;;;;;13.70;6.30;;;;;;;2.42;100.00;101699.22;5155641;56;1138992;-69
2022/01/19 07:23:59;;;;;;;18.17;7.90;;;;;;;2.37;100.00;101682.80;5155788;56;1139091;-73
2022/01/19 07:29:05;;;;;;;20.57;8.63;;;;;;;2.35;100.00;101675.45;5207963;55;1139161;-77
2022/01/19 07:34:12;;;;;;;15.77;7.83;;;;;;;2.33;100.00;101668.11;5228581;55;1138602;-72
2022/01/19 07:39:20;;;;;;;14.90;6.93;;;;;;;2.36;100.00;101662.37;5218680;55;1138500;-71
2022/01/19 07:44:27;;;;;;;22.57;10.60;;;;;;;2.33;100.00;101668.11;5144237;56;1139211;-70
2022/01/19 07:49:50;;;;;;;53.33;37.48;;;;;;;2.34;100.00;101652.86;5185747;56;1141333;-72
2022/01/19 07:54:58;;;;;;;41.60;24.73;;;;;;;2.36;100.00;101652.38;5196970;55;1141376;-71
2022/01/19 08:00:21;;;;;;;43.13;27.00;;;;;;;2.35;100.00;101651.96;5178240;55;1141056;-70
2022/01/19 08:05:26;;;;;;;23.63;9.70;;;;;;;2.32;100.00;101642.45;5148596;56;1141250;-73
2022/01/19 08:10:33;;;;;;;37.60;20.90;;;;;;;2.33;100.00;101627.20;5132725;56;1139360;-71
2022/01/19 08:15:39;;;;;;;41.23;12.67;;;;;;;2.33;100.00;101619.37;5180664;56;1141209;-73
2022/01/19 08:20:46;;;;;;;336.60;126.17;;;;;;;2.33;100.00;101606.31;5178599;55;1141234;-71
2022/01/19 08:25:52;;;;;;;275.87;111.70;;;;;;;2.36;100.00;101602.77;5181848;56;1145281;-71
2022/01/19 08:30:58;;;;;;;102.82;47.00;;;;;;;2.38;100.00;101593.15;5128065;57;1145275;-71
2022/01/19 08:36:21;;;;;;;85.17;46.13;;;;;;;2.40;100.00;101587.45;5129550;57;1142700;-71
2022/01/19 08:41:31;;;;;;;26.40;11.17;;;;;;;2.43;100.00;101576.92;5125886;57;1141180;-71
2022/01/19 08:46:40;;;;;;;40.60;16.50;;;;;;;2.41;100.00;101570.88;5117981;57;1141221;-74
2022/01/19 08:51:50;;;;;;;87.50;37.10;;;;;;;2.36;100.00;101573.61;5197645;56;1139062;-69
2022/01/19 08:57:00;;;;;;;52.30;18.90;;;;;;;2.34;100.00;101551.91;5158737;56;1138999;-70
2022/01/19 09:02:07;;;;;;;39.03;14.43;;;;;;;2.35;100.00;101548.84;5133461;57;1138553;-71
2022/01/19 09:07:13;;;;;;;63.37;27.00;;;;;;;2.38;100.00;101533.97;5133401;57;1139064;-72
2022/01/19 09:12:20;;;;;;;45.23;14.03;;;;;;;2.41;100.00;101529.97;5168097;56;1138510;-74
2022/01/19 09:17:26;;;;;;;20.37;9.83;;;;;;;2.46;100.00;101533.73;5219122;56;1139025;-70
2022/01/19 09:22:31;;;;;;;29.07;12.13;;;;;;;2.44;100.00;101527.25;5219373;56;1136939;-69
2022/01/19 09:27:40;;;;;;;22.07;9.30;;;;;;;2.47;100.00;101523.25;5219005;56;1139084;-72
2022/01/19 09:33:18;;;;;;;20.17;7.60;;;;;;;2.47;100.00;101524.56;5143373;56;1137171;-72
2022/01/19 09:37:56;;;;;;;33.53;18.53;;;;;;;2.48;100.00;101518.89;5128055;57;1136956;-74
2022/01/19 09:43:05;;;;;;;48.43;17.37;;;;;;;2.50;100.00;101516.23;5132805;57;1139042;-73
2022/01/19 09:48:10;;;;;;;26.70;11.50;;;;;;;2.52;100.00;101504.86;5133283;57;1139220;-75
2022/01/19 09:53:16;;;;;;;29.65;10.20;;;;;;;2.55;100.00;101506.08;5208611;56;1138973;-71
2022/01/19 09:58:22;;;;;;;19.67;10.03;;;;;;;2.52;100.00;101500.08;5183492;56;1138898;-73
2022/01/19 10:03:32;;;;;;;19.83;10.40;;;;;;;2.48;100.00;101494.94;5207401;56;1139013;-72
2022/01/19 10:08:42;;;;;;;23.13;12.77;;;;;;;2.53;100.00;101497.87;5176211;56;1136838;-75
2022/01/19 10:19:23;;;;;;;28.97;9.70;;;;;;;2.48;100.00;101471.44;5213205;56;1138982;-73
2022/01/19 10:25:04;;;;;;;22.13;10.37;;;;;;;2.46;100.00;101475.84;5213767;56;1139157;-73
2022/01/19 10:30:14;;;;;;;17.77;10.93;;;;;;;2.50;100.00;101469.23;5179165;56;1141121;-75
2022/01/19 10:35:33;;;;;;;25.10;10.87;;;;;;;2.58;100.00;101452.47;5154677;56;1141158;-72
2022/01/19 10:40:44;;;;;;;25.80;11.50;;;;;;;2.61;100.00;101451.49;5128022;57;1141093;-70
2022/01/19 10:45:49;;;;;;;22.83;12.33;;;;;;;2.60;100.00;101444.59;5141670;56;1141030;-71
2022/01/19 10:51:08;;;;;;;33.33;12.70;;;;;;;2.66;100.00;101430.02;5153985;56;1141351;-73
2022/01/19 10:56:32;;;;;;;18.60;9.97;;;;;;;2.65;100.00;101413.49;5173809;57;1141187;-74
2022/01/19 11:01:51;;;;;;;26.00;12.43;;;;;;;2.72;100.00;101394.13;5150498;56;1138847;-72
2022/01/19 11:07:03;;;;;;;28.57;14.57;;;;;;;2.77;100.00;101386.98;5039977;56;1141199;-72
2022/01/19 11:12:13;;;;;;;110.33;34.43;;;;;;;2.81;100.00;101380.77;5047852;57;1141104;-71
2022/01/19 11:17:17;;;;;;;54.00;18.90;;;;;;;2.84;100.00;101365.45;5046508;57;1141448;-72
2022/01/19 11:22:30;;;;;;;82.73;24.83;;;;;;;2.83;100.00;101345.02;4965529;59;1139106;-73
2022/01/19 11:27:47;;;;;;;82.87;32.13;;;;;;;2.90;100.00;101342.20;5015151;58;1139087;-72
2022/01/19 11:33:17;;;;;;;211.13;66.83;;;;;;;2.93;100.00;101335.55;5034828;58;1139191;-73
2022/01/19 11:38:39;;;;;;;37.77;14.00;;;;;;;2.95;100.00;101327.22;5124909;57;1141098;-71
2022/01/19 11:43:58;;;;;;;129.70;35.20;;;;;;;2.98;100.00;101303.16;5216793;56;1139438;-71
2022/01/19 11:49:07;;;;;;;81.73;39.40;;;;;;;2.98;100.00;101294.00;5092421;57;1143132;-70
2022/01/19 11:54:31;;;;;;;51.77;22.27;;;;;;;2.98;100.00;101294.45;5074517;57;1141178;-72
2022/01/19 11:59:48;;;;;;;;;;;;;;;2.98;100.00;101287.47;5139243;57;1141260;-70
2022/01/19 12:05:03;;;;;;;26.80;12.07;;;;;;;3.06;100.00;101281.97;5052801;57;974322;-71
2022/01/19 12:10:20;;;;;;;39.70;13.93;;;;;;;3.12;100.00;101264.78;5101107;57;1139030;-72
2022/01/19 12:15:59;;;;;;;30.47;13.07;;;;;;;3.22;100.00;101232.63;5113236;57;1141014;-72
2022/01/19 12:20:59;;;;;;;55.13;16.73;;;;;;;3.28;100.00;101212.81;5165457;56;1141056;-71
2022/01/19 12:26:09;;;;;;;27.73;12.67;;;;;;;3.44;100.00;101197.81;5202082;56;1141064;-73
2022/01/19 12:31:28;;;;;;;164.97;41.70;;;;;;;3.80;100.00;101173.80;5213054;56;1140752;-70
2022/01/19 12:37:01;;;;;;;49.60;18.10;;;;;;;4.11;100.00;101156.41;5208712;56;1143367;-74
2022/01/19 12:42:23;;;;;;;31.00;13.97;;;;;;;4.31;100.00;101147.26;5242237;56;1141158;-71
2022/01/19 12:47:31;;;;;;;33.85;14.03;;;;;;;4.37;100.00;101143.55;5241993;56;1141139;-73
2022/01/19 12:52:44;;;;;;;34.57;14.47;;;;;;;4.53;100.00;101131.05;5209441;56;1139384;-71
2022/01/19 12:57:51;;;;;;;75.70;22.40;;;;;;;4.60;100.00;101115.44;5180137;56;1138987;-74
2022/01/19 13:02:58;;;;;;;35.97;13.33;;;;;;;4.67;100.00;101104.25;5210506;56;1138945;-72
2022/01/19 13:08:08;;;;;;;60.63;26.90;;;;;;;4.74;100.00;101085.16;5165643;56;1138451;-73
2022/01/19 13:13:25;;;;;;;19.67;11.10;;;;;;;4.94;100.00;101079.88;5140984;56;1138958;-73
2022/01/19 13:18:35;;;;;;;36.20;14.67;;;;;;;4.97;100.00;101065.34;5138742;56;1138981;-70
2022/01/19 13:24:00;;;;;;;23.30;13.05;;;;;;;5.06;100.00;101060.12;5137247;56;1141103;-72
2022/01/19 13:29:27;;;;;;;167.43;53.50;;;;;;;5.33;100.00;101055.38;5132549;56;1139087;-75
2022/01/19 13:34:37;;;;;;;136.80;42.23;;;;;;;5.65;100.00;101030.58;5135916;56;1145275;-70
2022/01/19 13:39:44;;;;;;;203.22;53.63;;;;;;;5.89;100.00;101020.69;5120470;57;1143124;-74
2022/01/19 13:44:50;;;;;;;123.57;35.50;;;;;;;5.86;100.00;101009.45;5122125;57;1143270;-72
2022/01/19 13:49:57;;;;;;;100.20;32.57;;;;;;;5.60;100.00;100999.80;5134415;56;1143232;-70
2022/01/19 13:55:03;;;;;;;51.60;20.93;;;;;;;5.57;100.00;100983.36;5116180;57;1143095;-69
2022/01/19 14:00:16;;;;;;;79.87;26.23;;;;;;;5.44;100.00;100971.31;5150822;57;1143189;-73
2022/01/19 14:05:37;;;;;;;65.70;24.00;;;;;;;5.24;100.00;100968.80;5131152;57;1141036;-74
2022/01/19 14:10:49;;;;;;;81.90;30.47;;;;;;;5.27;100.00;100953.77;5089768;57;1143070;-71
2022/01/19 14:16:00;;;;;;;90.80;30.57;;;;;;;5.28;100.00;100933.19;5132339;57;1141190;-74
2022/01/19 14:21:12;;;;;;;48.43;23.53;;;;;;;5.15;100.00;100929.47;5120375;57;1141148;-74
2022/01/19 14:26:17;;;;;;;121.83;40.83;;;;;;;5.11;100.00;100929.67;5094267;57;1141157;-74
2022/01/19 14:31:23;;;;;;;127.27;47.40;;;;;;;5.02;100.00;100901.30;5129398;57;1143206;-73
2022/01/19 14:36:28;;;;;;;91.73;37.40;;;;;;;4.90;100.00;100897.47;5109501;57;1143207;-72
2022/01/19 14:41:37;;;;;;;104.43;45.47;;;;;;;4.77;100.00;100897.67;5096482;57;1141194;-74
2022/01/19 14:47:15;;;;;;;78.50;39.77;;;;;;;4.62;100.00;100887.46;5165059;56;1143100;-72
2022/01/19 14:52:16;;;;;;;65.57;29.87;;;;;;;4.57;100.00;100894.71;5159603;56;1141475;-72
2022/01/19 14:57:22;;;;;;;61.57;25.27;;;;;;;4.46;100.00;100867.69;5219034;56;1141369;-70
2022/01/19 15:02:29;;;;;;;28.63;16.53;;;;;;;4.38;100.00;100851.50;5229823;56;1141142;-74
2022/01/19 15:07:38;;;;;;;38.83;19.63;;;;;;;4.33;100.00;100836.45;5207534;56;1142034;-70
2022/01/19 15:12:42;;;;;;;37.97;18.97;;;;;;;4.26;100.00;100826.35;5213209;56;1140973;-71
2022/01/19 15:17:48;;;;;;;17.23;10.57;;;;;;;4.21;100.00;100814.31;5224360;56;1141134;-74
2022/01/19 15:22:59;;;;;;;28.37;15.23;;;;;;;4.17;100.00;100787.03;5230258;56;1141494;-70
2022/01/19 15:28:03;;;;;;;29.40;13.93;;;;;;;4.10;100.00;100757.70;5298296;55;1141165;-75
2022/01/19 15:33:09;;;;;;;33.60;16.13;;;;;;;4.10;100.00;100743.77;5309713;55;1139042;-71
2022/01/19 15:38:15;;;;;;;36.10;18.60;;;;;;;4.09;100.00;100723.75;5309586;55;1141136;-74
2022/01/19 15:43:21;;;;;;;22.97;11.80;;;;;;;4.08;100.00;100741.22;5309660;55;1139293;-72
2022/01/19 15:48:31;;;;;;;19.33;10.77;;;;;;;4.06;100.00;100737.82;5308354;55;1139034;-74
2022/01/19 15:53:39;;;;;;;29.70;16.70;;;;;;;4.00;100.00;100702.77;5169054;56;1139061;-75
2022/01/19 15:58:44;;;;;;;30.30;15.67;;;;;;;3.95;100.00;100698.23;5166420;56;1139108;-72
2022/01/19 16:03:50;;;;;;;51.03;22.23;;;;;;;3.95;100.00;100690.84;5159930;56;1139090;-68
2022/01/19 16:08:56;;;;;;;36.60;17.53;;;;;;;3.92;100.00;100687.06;5156435;56;1139075;-72
2022/01/19 16:14:01;;;;;;;73.57;27.00;;;;;;;3.83;100.00;100674.78;5122830;57;1139080;-71
2022/01/19 16:19:06;;;;;;;55.67;23.60;;;;;;;3.80;100.00;100697.19;5165212;56;1141182;-71
2022/01/19 16:29:38;;;;;;;46.67;20.13;;;;;;;3.65;100.00;100656.52;5210925;55;1139085;-69
2022/01/19 16:34:43;;;;;;;62.73;25.07;;;;;;;3.61;100.00;100641.42;5210927;55;1139262;-73
2022/01/19 16:39:49;;;;;;;74.03;26.00;;;;;;;3.55;100.00;100639.08;5178980;55;1139155;-71
2022/01/19 16:44:55;;;;;;;52.90;20.57;;;;;;;3.52;100.00;100630.06;5159245;55;1136975;-72
2022/01/19 16:50:01;;;;;;;61.90;26.13;;;;;;;3.48;100.00;100631.15;5173509;56;1136946;-73
2022/01/19 16:55:08;;;;;;;76.27;27.73;;;;;;;3.44;100.00;100621.29;5156424;57;1141394;-71
2022/01/19 17:00:16;;;;;;;60.10;26.43;;;;;;;3.41;100.00;100603.58;5072548;57;1141051;-80
2022/01/19 17:05:22;;;;;;;68.02;27.27;;;;;;;3.38;100.00;100581.04;5152026;57;1141139;-75
2022/01/19 17:10:29;;;;;;;132.70;51.57;;;;;;;3.38;100.00;100574.96;5143185;57;1141151;-71
2022/01/19 17:20:43;;;;;;;193.93;65.23;;;;;;;3.33;100.00;100564.75;5089608;57;1143239;-74
2022/01/19 17:25:49;;;;;;;190.27;62.33;;;;;;;3.31;100.00;100557.89;5079405;58;1143206;-72
2022/01/19 17:30:55;;;;;;;102.07;38.67;;;;;;;3.25;100.00;100540.72;5079640;58;1142670;-72
2022/01/19 17:36:01;;;;;;;105.60;40.90;;;;;;;3.23;100.00;100547.78;5124262;57;1143146;-70
2022/01/19 17:41:06;;;;;;;80.27;31.10;;;;;;;3.21;100.00;100539.65;5093045;57;1143181;-78
2022/01/19 17:46:21;;;;;;;90.50;36.43;;;;;;;3.16;100.00;100525.48;5195100;56;1141236;-81
2022/01/19 17:56:35;;;;;;;49.60;21.20;;;;;;;3.07;100.00;100501.07;5170744;56;1141134;-68
2022/01/19 18:01:41;;;;;;;41.40;22.27;;;;;;;3.01;100.00;100492.23;5080797;57;1141030;-74
2022/01/19 18:06:48;;;;;;;47.40;21.03;;;;;;;2.95;100.00;100489.44;5067423;57;1141211;-79
2022/01/19 18:11:54;;;;;;;42.80;20.33;;;;;;;2.88;100.00;100472.83;5065382;57;1141315;-79
2022/01/19 18:17:00;;;;;;;38.10;16.53;;;;;;;2.85;100.00;100472.52;5114766;57;1141185;-77
2022/01/19 18:22:09;;;;;;;45.10;19.97;;;;;;;2.80;100.00;100465.34;5085230;57;1141094;-81
2022/01/19 18:27:15;;;;;;;29.87;14.83;;;;;;;2.79;100.00;100450.59;5029053;57;1141202;-78
2022/01/19 18:32:20;;;;;;;33.40;15.57;;;;;;;2.76;100.00;100438.97;5051681;57;1141105;-77
2022/01/19 18:37:26;;;;;;;33.40;13.73;;;;;;;2.75;100.00;100437.30;5083078;57;1141222;-81
2022/01/19 18:42:32;;;;;;;23.67;11.00;;;;;;;2.72;100.00;100427.00;5094259;57;1141135;-74
2022/01/19 18:47:38;;;;;;;32.33;15.83;;;;;;;2.70;100.00;100415.31;5091963;57;1141106;-83
2022/01/19 18:52:44;;;;;;;25.10;12.00;;;;;;;2.68;100.00;100400.17;5089045;57;1141355;-79
2022/01/19 18:57:51;;;;;;;23.20;11.87;;;;;;;2.68;100.00;100390.19;5094033;57;1141149;-77
2022/01/19 19:02:57;;;;;;;22.33;11.03;;;;;;;2.65;100.00;100391.17;5089280;57;1141053;-75
2022/01/19 19:08:03;;;;;;;20.63;10.70;;;;;;;2.65;100.00;100400.77;5099324;57;1141109;-77
2022/01/19 19:13:11;;;;;;;23.50;11.63;;;;;;;2.62;100.00;100389.16;5098659;57;1141272;-79
2022/01/19 19:18:18;;;;;;;20.00;11.13;;;;;;;2.65;100.00;100370.28;5098272;57;1141143;-80
2022/01/19 19:23:24;;;;;;;19.67;11.70;;;;;;;2.67;100.00;100361.92;5103349;57;1141393;-76
2022/01/19 19:28:29;;;;;;;20.07;10.43;;;;;;;2.71;100.00;100349.12;5089969;57;1141125;-78
2022/01/19 19:33:35;;;;;;;24.67;13.07;;;;;;;2.73;100.00;100335.99;5075886;57;1141344;-72
2022/01/19 19:38:40;;;;;;;18.23;11.20;;;;;;;2.75;100.00;100332.85;5067870;57;1141127;-76
2022/01/19 19:43:47;;;;;;;62.03;28.07;;;;;;;2.76;100.00;100321.45;5075626;57;1141034;-76
2022/01/19 19:48:53;;;;;;;33.13;16.43;;;;;;;2.78;100.00;100305.25;5077623;57;1141177;-81
2022/01/19 19:53:58;;;;;;;25.03;13.23;;;;;;;2.77;100.00;100286.12;5090654;57;1141251;-82
2022/01/19 19:59:12;;;;;;;19.63;12.30;;;;;;;2.78;100.00;100285.67;5131468;56;1139016;-82
2022/01/19 20:04:13;;;;;;;20.10;9.40;;;;;;;2.78;100.00;100283.91;5140585;57;1139031;-81
2022/01/19 20:09:18;;;;;;;21.13;12.33;;;;;;;2.74;100.00;100278.93;5141959;57;1136913;-82
2022/01/19 20:14:25;;;;;;;29.33;15.63;;;;;;;2.73;100.00;100260.27;5154712;56;1138929;-75
2022/01/19 20:19:31;;;;;;;21.60;12.80;;;;;;;2.70;100.00;100257.34;5160403;56;1139042;-76
2022/01/19 20:24:37;;;;;;;26.93;14.50;;;;;;;2.68;100.00;100246.58;5119844;57;1139246;-83
2022/01/19 20:29:42;;;;;;;25.23;12.60;;;;;;;2.66;100.00;100236.21;5090246;57;1139042;-82
2022/01/19 20:34:48;;;;;;;20.40;10.20;;;;;;;2.65;100.00;100229.76;5088254;57;1139507;-77
2022/01/19 20:39:55;;;;;;;27.02;12.70;;;;;;;2.62;100.00;100230.75;5110041;57;1139542;-72
2022/01/19 20:45:01;;;;;;;18.57;8.83;;;;;;;2.58;100.00;100210.95;5118219;57;1139103;-74
2022/01/19 20:50:08;;;;;;;18.20;11.03;;;;;;;2.58;100.00;100197.06;5124588;57;1137247;-84
2022/01/19 20:55:15;;;;;;;16.32;9.58;;;;;;;2.58;100.00;100193.15;5119598;57;1139307;-80
2022/01/19 21:00:21;;;;;;;22.30;11.33;;;;;;;2.59;100.00;100185.24;5121508;57;1136977;-80
2022/01/19 21:05:27;;;;;;;22.13;11.47;;;;;;;2.62;100.00;100163.33;5121393;57;1139342;-73
2022/01/19 21:10:35;;;;;;;30.67;13.50;;;;;;;2.64;100.00;100153.66;5101985;57;1138946;-73
2022/01/19 21:15:41;;;;;;;29.40;13.20;;;;;;;2.66;100.00;100148.75;5041433;57;1138901;-75
2022/01/19 21:20:47;;;;;;;15.27;9.10;;;;;;;2.67;100.00;100140.00;4960984;58;1139178;-69
2022/01/19 21:25:54;;;;;;;13.07;8.00;;;;;;;2.69;100.00;100135.55;4962028;59;1134950;-73
2022/01/19 21:30:59;;;;;;;14.30;8.80;;;;;;;2.66;100.00;100124.41;4996482;59;1134890;-72
2022/01/19 21:36:05;;;;;;;18.57;7.70;;;;;;;2.71;100.00;100119.80;4998806;59;1139135;-77
2022/01/19 21:41:11;;;;;;;12.07;7.97;;;;;;;2.73;100.00;100100.98;5001132;58;1139140;-68
2022/01/19 21:46:17;;;;;;;20.60;10.03;;;;;;;2.74;100.00;100098.30;5005794;58;1139015;-71
2022/01/19 21:51:23;;;;;;;20.97;9.30;;;;;;;2.76;100.00;100095.58;5006858;58;1141046;-70
2022/01/19 21:56:29;;;;;;;47.13;31.53;;;;;;;2.78;100.00;100092.43;5005778;58;1138966;-69
2022/01/19 22:01:35;;;;;;;263.13;125.23;;;;;;;2.82;100.00;100074.37;4996189;58;1141416;-74
2022/01/19 22:06:40;;;;;;;37.43;22.27;;;;;;;2.83;100.00;100055.17;5007418;58;1145437;-70
2022/01/19 22:11:47;;;;;;;53.93;35.67;;;;;;;2.83;100.00;100046.03;4996170;58;1141123;-74
2022/01/19 22:16:54;;;;;;;22.57;17.77;;;;;;;2.82;100.00;100034.75;5121053;56;1141220;-74
2022/01/19 22:22:01;;;;;;;10.58;7.15;;;;;;;2.83;100.00;100024.68;5138201;57;1141121;-71
2022/01/19 22:27:09;;;;;;;19.70;9.73;;;;;;;2.83;100.00;100010.78;5149166;56;1138438;-76
2022/01/19 22:32:14;;;;;;;44.77;18.67;;;;;;;2.78;100.00;100004.95;5160622;56;1138702;-71
2022/01/19 22:37:20;;;;;;;21.83;9.93;;;;;;;2.76;100.00;100002.88;5153862;56;1141088;-74
2022/01/19 22:42:28;;;;;;;17.60;7.17;;;;;;;2.74;100.00;100002.15;5153897;56;1139055;-68
2022/01/19 22:47:34;;;;;;;40.10;13.60;;;;;;;2.70;100.00;99983.65;5154789;56;1139007;-72
2022/01/19 22:52:40;;;;;;;42.60;13.57;;;;;;;2.67;100.00;99988.56;5149288;56;1139013;-69
2022/01/19 22:57:45;;;;;;;61.23;17.63;;;;;;;2.66;100.00;99983.42;5122779;57;1139047;-72
2022/01/19 23:02:52;;;;;;;51.63;15.37;;;;;;;2.62;100.00;99966.23;5122725;57;1139313;-70
2022/01/19 23:07:58;;;;;;;24.63;9.83;;;;;;;2.60;100.00;99951.14;5094670;57;1139037;-76
2022/01/19 23:13:04;;;;;;;51.50;14.90;;;;;;;2.57;100.00;99936.94;5037132;58;1136995;-76
2022/01/19 23:18:10;;;;;;;29.33;9.00;;;;;;;2.49;100.00;99926.90;5041205;58;1139099;-76
2022/01/19 23:23:16;;;;;;;31.27;10.33;;;;;;;2.41;100.00;99914.28;5047664;58;1136939;-71
2022/01/19 23:28:22;;;;;;;26.57;10.87;;;;;;;2.31;100.00;99910.45;5050320;58;1139104;-73
2022/01/19 23:33:27;;;;;;;27.87;12.10;;;;;;;2.24;100.00;99894.77;5050401;58;1139198;-78
2022/01/19 23:38:50;;;;;;;25.60;12.03;;;;;;;2.21;100.00;99886.25;5049992;58;1139116;-70
2022/01/19 23:49:10;;;;;;;;;;;;;;;2.18;100.00;99859.02;5042639;58;1137041;-73
2022/01/19 23:54:15;;;;;;;12.80;8.10;;;;;;;2.19;100.00;99847.20;5082645;57;972235;-74
2022/01/19 23:59:22;;;;;;;8.83;6.27;;;;;;;2.21;100.00;99831.00;5121720;57;1134902;-76
